Agua de Oro, Argentina
Current Conditions -  °F | °C
As of 6:00 PM on Saturday 25 Oct 2014 (Local Time) from SACO Reporting Station
Clear Clear  
Wind Chill: 90°   Ceiling: Unl
Heat Index: 90°   Visibility: 6mi
Dew Point: 54°   Wind: 18mph
Humidity: 29%   Direction: 50°NE
Pressure: 29.83"   Gusts: NA
Location:  31.07°S, 64.3°W
Report Text: SACO 252100Z 05016KT CAVOK 32/12 Q1010
Loading
Personal Weather Stations






























Interactive Weather Map
Tropical Storm Tracking
New forecast layout! Learn more

10-Day Weather Forecast

Advertisements
Track Severe Weather on mobile